createdAt,value
2023-03-23T15:58:18.131Z,14.84
2023-03-23T16:00:49.683Z,14.77
2023-03-23T16:03:48.615Z,14.68
2023-03-23T16:06:25.427Z,14.54
2023-03-23T16:08:57.585Z,14.42
2023-03-23T16:11:28.306Z,14.32
2023-03-23T16:13:56.832Z,14.24
2023-03-23T16:16:40.407Z,14.13
2023-03-23T16:19:11.982Z,14.16
2023-03-23T16:21:41.460Z,14.12
2023-03-23T16:24:10.208Z,14.06
2023-03-23T16:26:37.959Z,13.99
2023-03-23T16:29:24.420Z,13.93
2023-03-23T16:32:01.785Z,13.88
2023-03-23T16:34:33.349Z,13.79
2023-03-23T16:37:00.850Z,13.73
2023-03-23T16:39:28.757Z,13.72
2023-03-23T16:41:56.124Z,13.68
2023-03-23T16:44:23.494Z,13.64
2023-03-23T16:46:50.922Z,13.57
2023-03-23T16:49:18.351Z,13.48
2023-03-23T16:51:45.686Z,13.50
2023-03-23T16:54:13.182Z,13.48
2023-03-23T16:56:41.136Z,13.46
2023-03-23T16:59:08.483Z,13.41
2023-03-23T17:01:35.880Z,13.39
2023-03-23T17:04:03.230Z,13.33
2023-03-23T17:06:30.765Z,13.23
2023-03-23T17:08:58.051Z,13.18
2023-03-23T17:11:25.184Z,13.11
2023-03-23T17:13:52.418Z,13.11
2023-03-23T17:16:19.714Z,13.07
2023-03-23T17:18:47.230Z,13.05
2023-03-23T17:21:14.383Z,13.01
2023-03-23T17:23:41.954Z,12.96
2023-03-23T17:26:09.183Z,12.91
2023-03-23T17:28:36.579Z,12.82
2023-03-23T17:31:03.926Z,12.72
2023-03-23T17:33:31.206Z,12.68
2023-03-23T17:35:58.405Z,12.63
2023-03-23T17:38:25.774Z,12.62
2023-03-23T17:40:59.975Z,12.57
2023-03-23T17:43:27.666Z,12.59
2023-03-23T17:45:54.583Z,12.57
2023-03-23T17:48:23.410Z,12.57
2023-03-23T17:50:57.877Z,12.57
2023-03-23T17:53:26.824Z,12.57
2023-03-23T17:55:54.192Z,12.60
2023-03-23T17:58:21.576Z,12.60
2023-03-23T18:00:48.716Z,12.62
2023-03-23T18:03:16.227Z,12.68
2023-03-23T18:05:44.237Z,12.69
2023-03-23T18:08:12.321Z,12.73
2023-03-23T18:10:41.026Z,12.71
2023-03-23T18:13:09.048Z,12.75
2023-03-23T18:15:37.397Z,12.72
2023-03-23T18:18:06.153Z,12.73
2023-03-23T18:20:34.155Z,12.78
2023-03-23T18:23:01.420Z,12.72
2023-03-23T18:25:28.663Z,12.72
2023-03-23T18:27:56.717Z,12.71
2023-03-23T18:30:32.811Z,12.63
2023-03-23T18:33:00.251Z,12.61
2023-03-23T18:35:28.251Z,12.62
2023-03-23T18:37:56.014Z,12.59
2023-03-23T18:40:23.254Z,12.60
2023-03-23T18:42:50.579Z,12.59
2023-03-23T18:45:17.878Z,12.55
2023-03-23T18:47:45.331Z,12.59
2023-03-23T18:50:12.830Z,12.61
2023-03-23T18:52:40.635Z,12.58
2023-03-23T18:55:08.393Z,12.56
2023-03-23T18:57:35.856Z,12.53
2023-03-23T19:00:07.015Z,12.49
2023-03-23T19:02:35.662Z,12.50
2023-03-23T19:05:03.021Z,12.56
2023-03-23T19:07:31.335Z,12.50
2023-03-23T19:09:58.756Z,12.47
2023-03-23T19:12:26.389Z,12.40
2023-03-23T19:14:54.068Z,12.33
2023-03-23T19:17:21.180Z,12.27
2023-03-23T19:19:48.906Z,12.19
2023-03-23T19:22:16.146Z,12.17
2023-03-23T19:24:43.403Z,12.15
2023-03-23T19:27:11.062Z,12.15
2023-03-23T19:29:38.468Z,12.18
2023-03-23T19:32:06.674Z,12.18
2023-03-23T19:34:34.191Z,12.22
2023-03-23T19:37:06.026Z,12.15
2023-03-23T19:39:35.085Z,12.20
2023-03-23T19:42:04.352Z,12.23
2023-03-23T19:44:32.356Z,12.15
2023-03-23T19:47:02.924Z,12.18
2023-03-23T19:49:30.599Z,12.22
2023-03-23T19:52:09.079Z,12.17
2023-03-23T19:54:40.914Z,12.10
2023-03-23T19:57:10.253Z,12.06
2023-03-23T19:59:39.330Z,11.98
2023-03-23T20:02:07.404Z,11.90
2023-03-23T20:04:35.721Z,11.80
2023-03-23T20:07:07.211Z,11.73
2023-03-23T20:09:35.873Z,11.63
2023-03-23T20:12:04.971Z,11.51
2023-03-23T20:14:33.232Z,11.37
2023-03-23T20:17:01.136Z,11.27
2023-03-23T20:19:28.796Z,11.19
2023-03-23T20:21:56.431Z,11.11
2023-03-23T20:24:23.840Z,11.03
2023-03-23T20:26:51.525Z,10.96
2023-03-23T20:29:18.600Z,10.88
2023-03-23T20:31:47.335Z,10.82
2023-03-23T20:34:29.134Z,10.78
2023-03-23T20:36:58.530Z,10.69
2023-03-23T20:39:29.467Z,10.65
2023-03-23T20:42:02.128Z,10.65
2023-03-23T20:44:31.501Z,10.67
2023-03-23T20:46:59.642Z,10.63
2023-03-23T20:49:27.883Z,10.61
2023-03-23T20:51:55.085Z,10.60
2023-03-23T20:54:23.007Z,10.61
2023-03-23T20:56:50.858Z,10.64
2023-03-23T20:59:20.213Z,10.65
2023-03-23T21:01:50.807Z,10.69
2023-03-23T21:04:20.787Z,10.70
2023-03-23T21:06:49.330Z,10.70
2023-03-23T21:09:17.836Z,10.67
2023-03-23T21:11:46.532Z,10.64
2023-03-23T21:14:14.093Z,10.60
2023-03-23T21:16:42.518Z,10.57
2023-03-23T21:19:10.697Z,10.55
2023-03-23T21:21:56.797Z,10.50
2023-03-23T21:24:29.546Z,10.44
2023-03-23T21:27:02.275Z,10.38
2023-03-23T21:29:31.165Z,10.31
2023-03-23T21:34:29.394Z,10.11
2023-03-23T21:36:56.775Z,10.02
2023-03-23T21:39:24.520Z,10.02
2023-03-23T21:41:52.146Z,9.98
2023-03-23T21:44:26.243Z,9.94
2023-03-23T21:46:54.712Z,9.90
2023-03-23T21:49:22.696Z,9.89
2023-03-23T21:51:50.433Z,9.86
2023-03-23T21:54:17.831Z,9.78
2023-03-23T21:56:45.134Z,9.74
2023-03-23T21:59:12.475Z,9.75
2023-03-23T22:01:40.661Z,9.79
2023-03-23T22:04:07.923Z,9.81
2023-03-23T22:06:35.074Z,9.90
2023-03-23T22:09:05.652Z,9.91
2023-03-23T22:11:33.175Z,10.01
2023-03-23T22:14:01.443Z,10.05
2023-03-23T22:16:29.653Z,10.11
2023-03-23T22:19:00.345Z,10.19
2023-03-23T22:21:29.190Z,10.24
2023-03-23T22:23:59.994Z,10.25
2023-03-23T22:26:29.746Z,10.25
2023-03-23T22:28:58.856Z,10.25
2023-03-23T22:31:30.585Z,10.20
2023-03-23T22:33:58.243Z,10.15
2023-03-23T22:36:31.387Z,10.17
2023-03-23T22:38:58.746Z,10.21
2023-03-23T22:41:32.702Z,10.19
2023-03-23T22:44:01.057Z,10.12
2023-03-23T22:46:28.887Z,10.20
2023-03-23T22:48:56.308Z,10.14
2023-03-23T22:51:24.907Z,10.24
2023-03-23T22:53:52.702Z,10.26
2023-03-23T22:56:20.356Z,10.30
2023-03-23T22:58:47.733Z,10.35
2023-03-23T23:01:20.180Z,10.34
2023-03-23T23:03:48.368Z,10.34
2023-03-23T23:06:17.164Z,10.41
2023-03-23T23:08:45.939Z,10.39
2023-03-23T23:11:17.266Z,10.39
2023-03-23T23:13:45.784Z,10.42
2023-03-23T23:16:14.277Z,10.44
2023-03-23T23:18:42.721Z,10.44
2023-03-23T23:21:14.803Z,10.49
2023-03-23T23:23:42.786Z,10.43
2023-03-23T23:26:10.221Z,10.43
2023-03-23T23:28:37.807Z,10.42
2023-03-23T23:31:06.807Z,10.41
2023-03-23T23:33:33.945Z,10.36
2023-03-23T23:36:01.927Z,10.33
2023-03-23T23:38:29.867Z,10.33
2023-03-23T23:40:57.854Z,10.30
2023-03-23T23:43:25.009Z,10.30
2023-03-23T23:45:53.063Z,10.28
2023-03-23T23:48:20.312Z,10.32
2023-03-23T23:50:50.861Z,10.33
2023-03-23T23:53:23.209Z,10.35
2023-03-23T23:55:50.587Z,10.36
2023-03-23T23:58:22.043Z,10.38
